createdAt,value
2018-07-09T00:01:29.402Z,4.60
2018-07-09T00:03:58.010Z,6.63
2018-07-09T00:06:26.513Z,4.60
2018-07-09T00:08:55.013Z,5.90
2018-07-09T00:11:23.474Z,6.23
2018-07-09T00:13:52.262Z,8.13
2018-07-09T00:16:20.758Z,6.80
2018-07-09T00:18:49.233Z,7.20
2018-07-09T00:21:17.806Z,6.20
2018-07-09T00:23:46.494Z,4.87
2018-07-09T00:26:14.988Z,7.70
2018-07-09T00:28:43.477Z,5.30
2018-07-09T00:31:11.961Z,5.87
2018-07-09T00:33:40.413Z,5.20
2018-07-09T00:36:08.915Z,5.00
2018-07-09T00:38:37.445Z,5.00
2018-07-09T00:41:06.201Z,4.90
2018-07-09T00:43:34.384Z,5.20
2018-07-09T00:46:03.677Z,5.23
2018-07-09T00:48:32.221Z,5.50
2018-07-09T00:51:00.760Z,5.93
2018-07-09T00:53:29.250Z,5.40
2018-07-09T00:55:57.709Z,7.93
2018-07-09T00:58:26.202Z,5.13
2018-07-09T01:00:54.765Z,6.17
2018-07-09T01:03:23.249Z,5.37
2018-07-09T01:05:51.776Z,7.30
2018-07-09T01:08:20.305Z,5.03
2018-07-09T01:11:00.002Z,6.60
2018-07-09T01:13:43.900Z,6.93
2018-07-09T01:16:12.673Z,8.00
2018-07-09T01:18:41.662Z,6.63
2018-07-09T01:21:13.867Z,6.00
2018-07-09T01:23:42.450Z,4.80
2018-07-09T01:26:10.921Z,5.13
2018-07-09T01:28:40.669Z,5.67
2018-07-09T01:31:09.174Z,5.30
2018-07-09T01:33:37.625Z,7.77
2018-07-09T01:36:06.133Z,6.07
2018-07-09T01:38:34.854Z,6.40
2018-07-09T01:41:03.349Z,5.40
2018-07-09T01:43:31.813Z,6.00
2018-07-09T01:46:00.296Z,6.50
2018-07-09T01:48:28.772Z,5.90
2018-07-09T01:50:57.272Z,7.10
2018-07-09T01:53:25.760Z,5.70
2018-07-09T01:55:54.237Z,5.27
2018-07-09T01:58:22.693Z,5.50
2018-07-09T02:00:51.165Z,5.60
2018-07-09T02:03:20.161Z,5.83
2018-07-09T02:05:48.676Z,10.13
2018-07-09T02:08:17.245Z,6.53
2018-07-09T02:10:45.713Z,5.83
2018-07-09T02:13:14.201Z,8.73
2018-07-09T02:15:42.672Z,5.80
2018-07-09T02:18:11.161Z,7.40
2018-07-09T02:20:39.617Z,5.73
2018-07-09T02:23:08.097Z,5.77
2018-07-09T02:25:36.585Z,6.60
2018-07-09T02:28:05.122Z,6.00
2018-07-09T02:30:33.606Z,5.70
2018-07-09T02:33:02.061Z,5.27
2018-07-09T02:35:30.534Z,6.60
2018-07-09T02:37:59.018Z,6.67
2018-07-09T02:40:27.493Z,6.13
2018-07-09T02:42:55.960Z,5.93
2018-07-09T02:45:24.451Z,9.10
2018-07-09T02:47:52.901Z,6.07
2018-07-09T02:50:21.369Z,6.07
2018-07-09T02:52:49.838Z,6.27
2018-07-09T02:55:18.313Z,6.53
2018-07-09T02:57:46.813Z,5.90
2018-07-09T03:00:15.309Z,6.10
2018-07-09T03:02:43.825Z,5.63
2018-07-09T03:05:12.337Z,5.43
2018-07-09T03:07:40.825Z,6.63
2018-07-09T03:10:09.301Z,6.83
2018-07-09T03:12:37.753Z,6.67
2018-07-09T03:15:06.313Z,9.37
2018-07-09T03:17:34.773Z,5.83
2018-07-09T03:20:03.323Z,6.40
2018-07-09T03:22:31.806Z,7.70
2018-07-09T03:25:00.313Z,6.20
2018-07-09T03:27:28.794Z,6.40
2018-07-09T03:29:57.284Z,6.07
2018-07-09T03:32:25.742Z,8.20
2018-07-09T03:34:54.205Z,6.33
2018-07-09T03:37:22.670Z,7.00
2018-07-09T03:39:51.141Z,7.00
2018-07-09T03:42:19.929Z,7.83
2018-07-09T03:44:48.488Z,60.77
2018-07-09T03:47:16.982Z,58.53
2018-07-09T03:49:45.538Z,57.37
2018-07-09T03:52:14.037Z,50.20
2018-07-09T03:54:42.527Z,54.77
2018-07-09T03:57:10.990Z,8.10
2018-07-09T03:59:39.451Z,6.20
2018-07-09T04:02:07.961Z,6.03
2018-07-09T04:04:36.417Z,6.67
2018-07-09T04:07:05.025Z,6.63
2018-07-09T04:09:33.486Z,6.47
2018-07-09T04:12:01.955Z,6.00
2018-07-09T04:14:30.445Z,7.17
2018-07-09T04:16:58.913Z,7.33
2018-07-09T04:19:27.381Z,6.27
2018-07-09T04:21:56.054Z,7.40
2018-07-09T04:24:24.561Z,9.23
2018-07-09T04:26:53.313Z,7.50
2018-07-09T04:29:21.769Z,6.90
2018-07-09T04:31:50.337Z,6.63
2018-07-09T04:34:18.762Z,7.00
2018-07-09T04:36:46.936Z,7.50
2018-07-09T04:39:15.541Z,5.80
2018-07-09T04:41:44.941Z,6.60
2018-07-09T04:44:13.408Z,6.70
2018-07-09T04:46:41.954Z,6.80
2018-07-09T04:49:10.473Z,6.67
2018-07-09T04:51:38.970Z,7.80
2018-07-09T04:54:07.450Z,6.27
2018-07-09T04:56:35.916Z,7.80
2018-07-09T04:59:04.430Z,8.47
2018-07-09T05:01:32.890Z,6.97
2018-07-09T05:04:01.365Z,8.40
2018-07-09T05:06:29.853Z,6.97
2018-07-09T05:08:58.325Z,7.10
2018-07-09T05:11:26.789Z,8.40
2018-07-09T05:13:55.249Z,6.37
2018-07-09T05:16:23.773Z,6.83
2018-07-09T05:18:52.252Z,9.67
2018-07-09T05:21:20.441Z,6.97
2018-07-09T05:23:48.957Z,7.80
2018-07-09T05:26:17.437Z,9.20
2018-07-09T05:28:45.897Z,7.90
2018-07-09T05:31:14.353Z,11.43
2018-07-09T05:33:42.842Z,7.03
2018-07-09T05:36:11.354Z,6.20
2018-07-09T05:38:39.878Z,6.50
2018-07-09T05:41:08.397Z,7.27
2018-07-09T05:43:37.465Z,7.53
2018-07-09T05:46:06.874Z,9.80
2018-07-09T05:48:35.793Z,7.20
2018-07-09T05:51:04.425Z,6.93
2018-07-09T05:53:32.921Z,7.70
2018-07-09T05:56:01.406Z,9.00
2018-07-09T05:58:29.869Z,8.37
2018-07-09T06:00:58.917Z,9.13
2018-07-09T06:03:27.431Z,7.37
2018-07-09T06:05:55.925Z,11.20
2018-07-09T06:08:24.431Z,9.00
2018-07-09T06:10:52.897Z,6.83
2018-07-09T06:13:21.397Z,6.40
2018-07-09T06:15:49.894Z,9.03
2018-07-09T06:18:18.365Z,8.73
2018-07-09T06:20:46.869Z,7.00
2018-07-09T06:23:15.374Z,50.77
2018-07-09T06:25:43.883Z,53.80
2018-07-09T06:28:12.357Z,46.63
2018-07-09T06:30:40.944Z,9.27
2018-07-09T06:33:09.430Z,7.57
2018-07-09T06:35:37.971Z,7.03
2018-07-09T06:38:06.637Z,7.00
2018-07-09T06:40:35.130Z,8.23
2018-07-09T06:43:03.681Z,6.03
2018-07-09T06:45:32.129Z,7.40
2018-07-09T06:48:00.738Z,7.40
2018-07-09T06:50:29.230Z,6.20
2018-07-09T06:52:57.704Z,7.80
2018-07-09T06:55:26.167Z,9.23
2018-07-09T06:57:54.677Z,7.23
2018-07-09T07:00:23.163Z,6.33
2018-07-09T07:02:51.706Z,11.90
2018-07-09T07:05:20.693Z,6.10
2018-07-09T07:07:49.174Z,8.03
2018-07-09T07:10:17.661Z,9.90
2018-07-09T07:12:46.217Z,7.83
2018-07-09T07:15:14.701Z,7.87
2018-07-09T07:17:43.185Z,7.90
2018-07-09T07:20:11.717Z,6.47
2018-07-09T07:22:40.192Z,11.10
2018-07-09T07:25:08.693Z,6.73
2018-07-09T07:27:37.586Z,11.37
2018-07-09T07:30:06.123Z,10.20
2018-07-09T07:32:34.709Z,11.03
2018-07-09T07:35:03.258Z,10.53
2018-07-09T07:37:32.425Z,9.10
2018-07-09T07:40:01.009Z,10.53
2018-07-09T07:42:30.029Z,11.37
2018-07-09T07:44:58.524Z,9.83
2018-07-09T07:47:27.040Z,7.60
2018-07-09T07:49:55.528Z,7.70
2018-07-09T07:52:24.054Z,9.23
2018-07-09T07:54:52.537Z,7.53
2018-07-09T07:57:21.041Z,9.20
2018-07-09T07:59:49.611Z,8.23
2018-07-09T08:02:18.181Z,9.90
2018-07-09T08:04:46.713Z,7.70
2018-07-09T08:07:15.181Z,11.37
2018-07-09T08:09:43.708Z,7.93
2018-07-09T08:13:00.533Z,10.13
2018-07-09T08:14:40.674Z,7.37
2018-07-09T08:17:09.223Z,7.50
2018-07-09T08:19:37.689Z,12.50
2018-07-09T08:22:06.221Z,11.50
2018-07-09T08:24:34.683Z,7.43
2018-07-09T08:27:03.171Z,8.90
2018-07-09T08:29:31.674Z,8.70
2018-07-09T08:32:00.122Z,7.43
2018-07-09T08:41:15.541Z,6.30
2018-07-09T08:43:44.018Z,10.87
2018-07-09T08:46:12.525Z,9.17
2018-07-09T08:48:40.700Z,8.63
2018-07-09T08:51:09.226Z,6.13
2018-07-09T08:53:37.789Z,8.30
2018-07-09T08:56:06.327Z,10.17
2018-07-09T08:58:34.798Z,9.93
2018-07-09T09:01:03.442Z,5.77
2018-07-09T09:03:31.975Z,11.33
2018-07-09T09:06:00.581Z,8.53
2018-07-09T09:08:29.045Z,8.03
2018-07-09T09:12:26.961Z,7.63
2018-07-09T09:14:55.415Z,9.33
2018-07-09T09:17:23.873Z,6.80
2018-07-09T09:19:52.405Z,8.63
2018-07-09T09:22:20.962Z,6.00
2018-07-09T09:24:49.482Z,7.87
2018-07-09T09:27:17.981Z,6.80
2018-07-09T09:29:46.474Z,7.30
2018-07-09T09:32:15.045Z,9.10
2018-07-09T09:34:43.534Z,9.10
2018-07-09T09:37:12.054Z,6.77
2018-07-09T09:39:40.573Z,8.30
2018-07-09T09:42:09.082Z,9.80
2018-07-09T09:44:37.557Z,9.07
2018-07-09T09:47:06.057Z,10.50
2018-07-09T09:49:34.722Z,9.00
2018-07-09T09:52:03.341Z,10.20
2018-07-09T09:54:31.844Z,9.90
2018-07-09T09:57:00.325Z,9.60
2018-07-09T09:59:28.809Z,10.57
2018-07-09T10:01:57.286Z,7.97
2018-07-09T10:04:25.787Z,13.47
2018-07-09T10:06:54.292Z,7.67
2018-07-09T10:09:22.755Z,7.90
2018-07-09T10:11:51.218Z,6.47
2018-07-09T10:14:19.714Z,9.33
2018-07-09T10:16:48.305Z,7.43
2018-07-09T10:19:16.753Z,11.70
2018-07-09T10:21:45.300Z,8.00
2018-07-09T10:24:13.821Z,8.53
2018-07-09T10:26:42.312Z,8.03
2018-07-09T10:29:10.827Z,7.63
2018-07-09T10:31:39.321Z,7.47
2018-07-09T10:34:07.780Z,6.80
2018-07-09T10:36:36.270Z,7.60
2018-07-09T10:39:05.509Z,8.67
2018-07-09T10:41:34.013Z,8.00
2018-07-09T10:44:02.506Z,9.00
2018-07-09T10:46:30.989Z,8.93
2018-07-09T10:48:59.480Z,7.77
2018-07-09T10:51:28.229Z,7.60
2018-07-09T10:53:56.709Z,7.00
2018-07-09T10:56:25.183Z,9.63
2018-07-09T10:58:53.825Z,7.00
2018-07-09T11:01:22.345Z,8.70
2018-07-09T11:03:50.857Z,8.50
2018-07-09T11:06:19.025Z,12.40
2018-07-09T11:08:47.525Z,13.97
2018-07-09T11:11:15.981Z,9.37
2018-07-09T11:13:44.490Z,9.17
2018-07-09T11:16:12.993Z,8.60
2018-07-09T11:18:41.492Z,9.87
2018-07-09T11:21:10.002Z,34.20
2018-07-09T11:23:38.496Z,42.60
2018-07-09T11:26:07.519Z,42.63
2018-07-09T11:28:36.035Z,10.20
2018-07-09T11:31:04.588Z,9.13
2018-07-09T11:33:33.037Z,8.97
2018-07-09T11:36:01.554Z,7.90
2018-07-09T11:38:30.058Z,8.70
2018-07-09T11:40:58.798Z,10.80
2018-07-09T11:43:27.283Z,13.50
2018-07-09T11:45:55.821Z,9.07
2018-07-09T11:48:24.297Z,10.00
2018-07-09T11:50:52.789Z,10.00
2018-07-09T11:53:21.274Z,8.67
2018-07-09T11:55:49.845Z,9.00
2018-07-09T11:58:18.325Z,8.50
2018-07-09T12:00:46.806Z,8.10
2018-07-09T12:03:15.289Z,7.90
2018-07-09T12:05:43.782Z,7.77
2018-07-09T12:08:12.278Z,9.50
2018-07-09T12:10:40.480Z,7.33
2018-07-09T12:13:08.982Z,8.27
2018-07-09T12:15:37.609Z,7.80
2018-07-09T12:18:06.153Z,11.03
2018-07-09T12:20:34.637Z,10.27
2018-07-09T12:23:03.113Z,9.37
2018-07-09T12:25:31.605Z,8.60
2018-07-09T12:28:00.178Z,7.60
2018-07-09T12:30:28.691Z,7.00
2018-07-09T12:32:57.154Z,7.07
2018-07-09T12:35:25.694Z,9.70
2018-07-09T12:37:54.162Z,6.53
2018-07-09T12:40:22.322Z,6.87
2018-07-09T12:42:50.810Z,7.40
2018-07-09T12:45:19.293Z,6.73
2018-07-09T12:47:47.777Z,8.00
2018-07-09T12:50:16.261Z,12.53
2018-07-09T12:52:44.813Z,8.97
2018-07-09T12:55:13.293Z,7.70
2018-07-09T12:57:41.809Z,7.83
2018-07-09T13:00:10.438Z,8.80
2018-07-09T13:02:39.173Z,7.80
2018-07-09T13:05:07.739Z,8.47
2018-07-09T13:07:36.577Z,7.70
2018-07-09T13:10:05.991Z,7.80
2018-07-09T13:12:34.471Z,6.50
2018-07-09T13:15:02.988Z,8.40
2018-07-09T13:17:31.480Z,8.03
2018-07-09T13:20:00.110Z,9.17
2018-07-09T13:22:28.561Z,11.23
2018-07-09T13:24:57.069Z,11.70
2018-07-09T13:27:25.609Z,9.57
2018-07-09T13:29:54.529Z,10.10
2018-07-09T13:32:23.038Z,6.77
2018-07-09T13:34:51.633Z,12.27
2018-07-09T13:37:20.134Z,9.90
2018-07-09T13:39:48.719Z,7.13
2018-07-09T13:42:17.257Z,8.37
2018-07-09T13:44:45.785Z,6.70
2018-07-09T13:47:14.412Z,7.80
2018-07-09T13:49:43.365Z,12.13
2018-07-09T13:52:11.978Z,7.83
2018-07-09T13:54:40.511Z,6.63
2018-07-09T13:57:09.013Z,7.20
2018-07-09T13:59:37.607Z,7.73
2018-07-09T14:02:06.081Z,7.43
2018-07-09T14:04:34.532Z,7.80
2018-07-09T14:07:03.060Z,8.27
2018-07-09T14:09:31.573Z,8.07
2018-07-09T14:12:00.073Z,7.33
2018-07-09T14:14:28.553Z,8.70
2018-07-09T14:16:57.045Z,8.60
2018-07-09T14:20:42.089Z,9.13
2018-07-09T14:23:11.990Z,6.70
2018-07-09T14:25:40.412Z,6.73
2018-07-09T14:28:08.945Z,7.37
2018-07-09T14:30:37.535Z,7.57
2018-07-09T14:33:06.429Z,6.53
2018-07-09T14:35:35.097Z,13.67
2018-07-09T14:38:03.602Z,7.17
2018-07-09T14:40:31.739Z,7.47
2018-07-09T14:43:00.245Z,9.57
2018-07-09T14:45:28.713Z,8.23
2018-07-09T14:47:57.243Z,9.93
2018-07-09T14:50:25.721Z,8.47
2018-07-09T14:52:54.649Z,7.13
2018-07-09T14:55:23.134Z,9.20
2018-07-09T14:57:51.693Z,6.03
2018-07-09T15:00:20.189Z,7.60
2018-07-09T15:02:48.728Z,7.37
2018-07-09T15:05:17.227Z,7.33
2018-07-09T15:07:45.713Z,8.13
2018-07-09T15:10:14.273Z,7.93
2018-07-09T15:12:42.773Z,8.43
2018-07-09T15:15:11.264Z,7.20
2018-07-09T15:17:39.767Z,9.47
2018-07-09T15:20:08.426Z,7.80
2018-07-09T15:22:36.965Z,7.70
2018-07-09T15:25:05.565Z,9.47
2018-07-09T15:27:34.045Z,7.50
2018-07-09T15:30:02.522Z,11.83
2018-07-09T15:32:31.937Z,7.70
2018-07-09T15:35:00.416Z,9.43
2018-07-09T15:37:29.530Z,8.43
2018-07-09T15:39:58.095Z,12.50
2018-07-09T15:42:26.634Z,9.00
2018-07-09T15:44:55.067Z,9.10
2018-07-09T15:47:23.533Z,7.60
2018-07-09T15:49:52.010Z,8.43
2018-07-09T15:52:20.517Z,8.10
2018-07-09T15:54:49.041Z,8.43
2018-07-09T15:57:17.514Z,11.77
2018-07-09T15:59:46.032Z,7.60
2018-07-09T16:02:14.533Z,7.50
2018-07-09T16:04:43.009Z,7.03
2018-07-09T16:07:11.502Z,6.57
2018-07-09T16:09:39.966Z,6.33
2018-07-09T16:12:08.530Z,6.57
2018-07-09T16:14:37.054Z,10.30
2018-07-09T16:17:05.649Z,6.30
2018-07-09T16:19:34.213Z,17.37
2018-07-09T16:22:02.718Z,9.23
2018-07-09T16:24:31.188Z,6.40
2018-07-09T16:26:59.640Z,6.27
2018-07-09T16:29:27.860Z,7.70
2018-07-09T16:31:56.341Z,8.47
2018-07-09T16:34:24.887Z,7.07
2018-07-09T16:36:53.461Z,7.10
2018-07-09T16:39:21.978Z,7.33
2018-07-09T16:41:50.459Z,7.63
2018-07-09T16:44:18.940Z,7.00
2018-07-09T16:46:47.532Z,8.83
2018-07-09T16:49:15.986Z,7.80
2018-07-09T16:51:45.353Z,7.30
2018-07-09T16:54:13.833Z,7.03
2018-07-09T16:56:42.409Z,6.77
2018-07-09T16:59:10.909Z,8.60
2018-07-09T17:01:39.393Z,6.60
2018-07-09T17:04:07.989Z,7.10
2018-07-09T17:06:36.465Z,6.90
2018-07-09T17:09:05.666Z,8.67
2018-07-09T17:11:34.157Z,6.83
2018-07-09T17:14:02.621Z,6.60
2018-07-09T17:16:31.097Z,7.30
2018-07-09T17:18:59.613Z,7.07
2018-07-09T17:21:28.074Z,7.87
2018-07-09T17:23:56.587Z,11.50
2018-07-09T17:26:25.184Z,12.57
2018-07-09T17:28:53.641Z,9.33
2018-07-09T17:31:22.209Z,13.80
2018-07-09T17:33:50.677Z,12.73
2018-07-09T17:36:18.861Z,9.73
2018-07-09T17:38:47.032Z,8.60
2018-07-09T17:41:15.541Z,9.33
2018-07-09T17:43:44.058Z,8.30
2018-07-09T17:46:12.543Z,8.37
2018-07-09T17:48:41.002Z,8.17
2018-07-09T17:51:09.540Z,8.13
2018-07-09T17:53:38.074Z,12.70
2018-07-09T17:56:06.605Z,11.87
2018-07-09T17:58:35.070Z,8.97
2018-07-09T18:01:03.566Z,12.10
2018-07-09T18:03:32.106Z,13.40
2018-07-09T18:06:00.636Z,9.23
2018-07-09T18:08:29.337Z,8.93
2018-07-09T18:10:57.809Z,8.33
2018-07-09T18:13:26.269Z,9.20
2018-07-09T18:15:54.746Z,13.70
2018-07-09T18:18:23.233Z,8.00
2018-07-09T18:20:51.720Z,9.47
2018-07-09T18:23:20.225Z,8.30
2018-07-09T18:25:48.681Z,8.00
2018-07-09T18:28:17.173Z,9.47
2018-07-09T18:30:45.714Z,8.93
2018-07-09T18:33:14.223Z,9.67
2018-07-09T18:35:42.791Z,13.27
2018-07-09T18:38:11.211Z,15.40
2018-07-09T18:40:39.711Z,28.57
2018-07-09T18:43:08.185Z,28.13
2018-07-09T18:45:36.714Z,14.03
2018-07-09T18:48:05.405Z,9.07
2018-07-09T18:50:33.964Z,9.40
2018-07-09T18:53:02.431Z,9.53
2018-07-09T18:55:30.902Z,8.53
2018-07-09T18:57:59.362Z,8.57
2018-07-09T19:00:27.885Z,9.37
2018-07-09T19:02:56.413Z,9.20
2018-07-09T19:06:39.197Z,11.40
2018-07-09T19:09:07.721Z,11.00
2018-07-09T19:11:36.374Z,11.63
2018-07-09T19:14:04.866Z,8.53
2018-07-09T19:17:42.394Z,9.20
2018-07-09T19:21:22.966Z,9.53
2018-07-09T19:23:50.752Z,8.83
2018-07-09T19:26:18.177Z,9.43
2018-07-09T19:28:45.780Z,9.33
2018-07-09T19:31:13.109Z,12.53
2018-07-09T19:33:41.108Z,10.37
2018-07-09T19:36:08.613Z,10.07
2018-07-09T19:38:36.625Z,9.20
2018-07-09T19:41:04.250Z,9.07
2018-07-09T19:43:31.585Z,9.57
2018-07-09T19:45:59.106Z,8.97
2018-07-09T19:48:26.541Z,8.90
2018-07-09T19:50:53.870Z,11.13
2018-07-09T19:53:21.183Z,9.53
2018-07-09T19:55:48.513Z,9.40
2018-07-09T19:58:15.843Z,10.03
2018-07-09T20:00:43.837Z,12.00
2018-07-09T20:03:11.566Z,12.00
2018-07-09T20:05:38.894Z,12.47
2018-07-09T20:08:07.009Z,19.50
2018-07-09T20:10:39.615Z,16.97
2018-07-09T20:14:14.379Z,14.47
2018-07-09T20:16:47.110Z,12.37
2018-07-09T20:19:14.446Z,21.30
2018-07-09T20:21:41.797Z,11.30
2018-07-09T20:24:09.137Z,12.13
2018-07-09T20:26:36.457Z,11.43
2018-07-09T20:29:03.800Z,11.93
2018-07-09T20:31:31.137Z,11.47
2018-07-09T20:33:58.450Z,11.13
2018-07-09T20:36:25.761Z,11.20
2018-07-09T20:38:53.096Z,10.97
2018-07-09T20:41:20.437Z,12.40
2018-07-09T20:43:47.770Z,11.03
2018-07-09T20:46:15.108Z,10.83
2018-07-09T20:48:42.462Z,10.03
2018-07-09T20:51:09.794Z,10.87
2018-07-09T20:53:37.113Z,9.63
2018-07-09T20:56:04.447Z,9.93
2018-07-09T20:58:31.763Z,9.57
2018-07-09T21:00:59.081Z,9.67
2018-07-09T21:03:26.413Z,9.30
2018-07-09T21:05:53.729Z,11.77
2018-07-09T21:08:21.032Z,9.17
2018-07-09T21:10:48.392Z,12.40
2018-07-09T21:13:15.734Z,9.83
2018-07-09T21:15:43.090Z,9.67
2018-07-09T21:18:10.418Z,9.87
2018-07-09T21:20:37.731Z,8.63
2018-07-09T21:23:05.045Z,11.13
2018-07-09T21:25:32.373Z,11.03
2018-07-09T21:27:59.708Z,11.43
2018-07-09T21:30:27.025Z,11.53
2018-07-09T21:32:54.383Z,11.53
2018-07-09T21:35:22.087Z,11.83
2018-07-09T21:37:49.593Z,11.57
2018-07-09T21:40:16.764Z,9.23
2018-07-09T21:42:44.076Z,10.63
2018-07-09T21:45:11.436Z,10.90
2018-07-09T21:47:38.754Z,8.47
2018-07-09T21:50:06.070Z,8.87
2018-07-09T21:52:33.406Z,7.80
2018-07-09T21:55:00.730Z,8.20
2018-07-09T21:57:28.094Z,7.20
2018-07-09T21:59:55.465Z,10.33
2018-07-09T22:02:22.773Z,8.00
2018-07-09T22:04:50.295Z,9.00
2018-07-09T22:07:17.633Z,8.00
2018-07-09T22:09:44.973Z,8.87
2018-07-09T22:12:12.281Z,8.00
2018-07-09T22:14:39.609Z,7.90
2018-07-09T22:17:06.946Z,10.90
2018-07-09T22:19:34.290Z,8.03
2018-07-09T22:22:01.601Z,6.53
2018-07-09T22:24:28.934Z,7.90
2018-07-09T22:26:56.260Z,7.63
2018-07-09T22:29:23.597Z,9.40
2018-07-09T22:31:52.109Z,7.80
2018-07-09T22:34:20.572Z,7.83
2018-07-09T22:36:49.017Z,8.13
2018-07-09T22:39:17.509Z,7.23
2018-07-09T22:41:45.997Z,7.67
2018-07-09T22:44:18.156Z,7.53
2018-07-09T22:46:46.993Z,8.17
2018-07-09T22:49:15.480Z,7.13
2018-07-09T22:51:43.986Z,8.03
2018-07-09T22:54:12.161Z,8.03
2018-07-09T22:56:40.621Z,7.60
2018-07-09T22:59:09.141Z,8.00
2018-07-09T23:01:37.612Z,8.87
2018-07-09T23:04:06.085Z,8.33
2018-07-09T23:06:34.537Z,8.73
2018-07-09T23:09:18.280Z,9.40
2018-07-09T23:12:26.267Z,7.87
2018-07-09T23:17:12.661Z,12.33
2018-07-09T23:21:59.242Z,8.97
2018-07-09T23:24:26.984Z,9.33
2018-07-09T23:26:55.086Z,12.17
2018-07-09T23:29:22.399Z,8.33
2018-07-09T23:31:50.090Z,9.30
2018-07-09T23:34:18.153Z,9.10
2018-07-09T23:36:45.485Z,9.27
2018-07-09T23:39:13.172Z,8.57
2018-07-09T23:41:40.725Z,8.53
2018-07-09T23:44:08.033Z,8.07
2018-07-09T23:46:35.365Z,9.20
2018-07-09T23:49:02.692Z,8.37
2018-07-09T23:51:30.018Z,8.40
2018-07-09T23:53:57.358Z,9.10
2018-07-09T23:58:44.113Z,9.13
